sensor_id;sensor_type;location;lat;lon;timestamp;temperature;humidity
12111;DHT22;6119;52.372;8.990;2022-08-14T00:00:06;23.10;99.90
12111;DHT22;6119;52.372;8.990;2022-08-14T00:02:56;23.10;99.90
12111;DHT22;6119;52.372;8.990;2022-08-14T00:05:44;23.10;99.90
12111;DHT22;6119;52.372;8.990;2022-08-14T00:08:42;23.00;99.90
12111;DHT22;6119;52.372;8.990;2022-08-14T00:11:29;23.00;99.90
12111;DHT22;6119;52.372;8.990;2022-08-14T00:14:17;23.00;99.90
12111;DHT22;6119;52.372;8.990;2022-08-14T00:17:04;22.90;99.90
12111;DHT22;6119;52.372;8.990;2022-08-14T00:19:51;22.90;99.90
12111;DHT22;6119;52.372;8.990;2022-08-14T00:22:39;22.90;99.90
12111;DHT22;6119;52.372;8.990;2022-08-14T00:25:44;22.90;99.90
12111;DHT22;6119;52.372;8.990;2022-08-14T00:28:43;22.80;99.90
12111;DHT22;6119;52.372;8.990;2022-08-14T00:31:30;22.80;99.90
12111;DHT22;6119;52.372;8.990;2022-08-14T00:34:28;22.80;99.90
12111;DHT22;6119;52.372;8.990;2022-08-14T00:37:31;22.70;99.90
12111;DHT22;6119;52.372;8.990;2022-08-14T00:40:21;22.70;99.90
12111;DHT22;6119;52.372;8.990;2022-08-14T00:43:20;22.60;99.90
12111;DHT22;6119;52.372;8.990;2022-08-14T00:46:09;22.60;99.90
12111;DHT22;6119;52.372;8.990;2022-08-14T00:49:16;22.60;99.90
12111;DHT22;6119;52.372;8.990;2022-08-14T00:52:05;22.60;99.90
12111;DHT22;6119;52.372;8.990;2022-08-14T00:54:52;22.60;99.90
12111;DHT22;6119;52.372;8.990;2022-08-14T00:57:44;22.60;99.90
12111;DHT22;6119;52.372;8.990;2022-08-14T01:00:51;22.50;99.90
12111;DHT22;6119;52.372;8.990;2022-08-14T01:03:42;22.50;99.90
12111;DHT22;6119;52.372;8.990;2022-08-14T01:06:29;22.50;99.90
12111;DHT22;6119;52.372;8.990;2022-08-14T01:09:19;22.50;99.90
12111;DHT22;6119;52.372;8.990;2022-08-14T01:12:07;22.50;99.90
12111;DHT22;6119;52.372;8.990;2022-08-14T01:14:56;22.50;99.90
12111;DHT22;6119;52.372;8.990;2022-08-14T01:17:44;22.50;99.90
12111;DHT22;6119;52.372;8.990;2022-08-14T01:20:49;22.50;99.90
12111;DHT22;6119;52.372;8.990;2022-08-14T01:23:51;22.50;99.90
12111;DHT22;6119;52.372;8.990;2022-08-14T01:26:41;22.40;99.90
12111;DHT22;6119;52.372;8.990;2022-08-14T01:29:34;22.40;99.90
12111;DHT22;6119;52.372;8.990;2022-08-14T01:32:42;22.30;99.90
12111;DHT22;6119;52.372;8.990;2022-08-14T01:35:36;22.30;99.90
12111;DHT22;6119;52.372;8.990;2022-08-14T01:38:53;22.30;99.90
12111;DHT22;6119;52.372;8.990;2022-08-14T01:41:44;22.20;99.90
12111;DHT22;6119;52.372;8.990;2022-08-14T01:44:42;22.20;99.90
12111;DHT22;6119;52.372;8.990;2022-08-14T01:47:38;22.10;99.90
12111;DHT22;6119;52.372;8.990;2022-08-14T01:50:25;22.10;99.90
12111;DHT22;6119;52.372;8.990;2022-08-14T01:53:11;22.10;99.90
12111;DHT22;6119;52.372;8.990;2022-08-14T01:56:03;22.10;99.90
12111;DHT22;6119;52.372;8.990;2022-08-14T01:59:04;22.00;99.90
12111;DHT22;6119;52.372;8.990;2022-08-14T02:01:55;22.00;99.90
12111;DHT22;6119;52.372;8.990;2022-08-14T02:04:43;22.00;99.90
12111;DHT22;6119;52.372;8.990;2022-08-14T02:07:42;22.00;99.90
12111;DHT22;6119;52.372;8.990;2022-08-14T02:10:45;21.90;99.90
12111;DHT22;6119;52.372;8.990;2022-08-14T02:13:59;22.00;99.90
12111;DHT22;6119;52.372;8.990;2022-08-14T02:16:51;21.90;99.90
12111;DHT22;6119;52.372;8.990;2022-08-14T02:19:39;21.80;99.90
12111;DHT22;6119;52.372;8.990;2022-08-14T02:22:27;21.80;99.90
12111;DHT22;6119;52.372;8.990;2022-08-14T02:25:17;21.80;99.90
12111;DHT22;6119;52.372;8.990;2022-08-14T02:28:04;21.70;99.90
12111;DHT22;6119;52.372;8.990;2022-08-14T02:31:13;21.80;99.90
12111;DHT22;6119;52.372;8.990;2022-08-14T02:34:03;21.80;99.90
12111;DHT22;6119;52.372;8.990;2022-08-14T02:37:12;21.80;99.90
12111;DHT22;6119;52.372;8.990;2022-08-14T02:40:00;21.70;99.90
12111;DHT22;6119;52.372;8.990;2022-08-14T02:42:49;21.70;99.90
12111;DHT22;6119;52.372;8.990;2022-08-14T02:45:41;21.60;99.90
12111;DHT22;6119;52.372;8.990;2022-08-14T02:48:33;21.50;99.90
12111;DHT22;6119;52.372;8.990;2022-08-14T02:51:40;21.50;99.90
12111;DHT22;6119;52.372;8.990;2022-08-14T02:54:27;21.50;99.90
12111;DHT22;6119;52.372;8.990;2022-08-14T02:57:14;21.50;99.90
12111;DHT22;6119;52.372;8.990;2022-08-14T03:00:21;21.40;99.90
12111;DHT22;6119;52.372;8.990;2022-08-14T03:03:09;21.40;99.90
12111;DHT22;6119;52.372;8.990;2022-08-14T03:05:57;21.40;99.90
12111;DHT22;6119;52.372;8.990;2022-08-14T03:08:45;21.40;99.90
12111;DHT22;6119;52.372;8.990;2022-08-14T03:11:33;21.30;99.90
12111;DHT22;6119;52.372;8.990;2022-08-14T03:14:20;21.20;99.90
12111;DHT22;6119;52.372;8.990;2022-08-14T03:17:12;21.30;99.90
12111;DHT22;6119;52.372;8.990;2022-08-14T03:20:02;21.30;99.90
12111;DHT22;6119;52.372;8.990;2022-08-14T03:22:57;21.20;99.90
12111;DHT22;6119;52.372;8.990;2022-08-14T03:25:48;21.20;99.90
12111;DHT22;6119;52.372;8.990;2022-08-14T03:28:35;21.10;99.90
12111;DHT22;6119;52.372;8.990;2022-08-14T03:31:23;21.10;99.90
12111;DHT22;6119;52.372;8.990;2022-08-14T03:34:12;21.10;99.90
12111;DHT22;6119;52.372;8.990;2022-08-14T03:37:19;21.00;99.90
12111;DHT22;6119;52.372;8.990;2022-08-14T03:40:27;21.10;99.90
12111;DHT22;6119;52.372;8.990;2022-08-14T03:43:14;21.10;99.90
12111;DHT22;6119;52.372;8.990;2022-08-14T03:46:02;21.10;99.90
12111;DHT22;6119;52.372;8.990;2022-08-14T03:49:08;21.10;99.90
12111;DHT22;6119;52.372;8.990;2022-08-14T03:51:58;21.10;99.90
12111;DHT22;6119;52.372;8.990;2022-08-14T03:55:03;21.10;99.90
12111;DHT22;6119;52.372;8.990;2022-08-14T03:57:52;21.00;99.90
12111;DHT22;6119;52.372;8.990;2022-08-14T04:00:41;21.00;99.90
12111;DHT22;6119;52.372;8.990;2022-08-14T04:03:30;21.00;99.90
12111;DHT22;6119;52.372;8.990;2022-08-14T04:06:18;20.90;99.90
12111;DHT22;6119;52.372;8.990;2022-08-14T04:09:12;21.00;99.90
12111;DHT22;6119;52.372;8.990;2022-08-14T04:12:01;20.90;99.90
12111;DHT22;6119;52.372;8.990;2022-08-14T04:14:51;20.90;99.90
12111;DHT22;6119;52.372;8.990;2022-08-14T04:17:38;20.90;99.90
12111;DHT22;6119;52.372;8.990;2022-08-14T04:20:30;20.90;99.90
12111;DHT22;6119;52.372;8.990;2022-08-14T04:23:25;20.90;99.90
12111;DHT22;6119;52.372;8.990;2022-08-14T04:26:17;20.90;99.90
12111;DHT22;6119;52.372;8.990;2022-08-14T04:29:26;20.90;99.90
12111;DHT22;6119;52.372;8.990;2022-08-14T04:32:19;20.90;99.90
12111;DHT22;6119;52.372;8.990;2022-08-14T04:35:26;20.90;99.90
12111;DHT22;6119;52.372;8.990;2022-08-14T04:38:33;20.80;99.90
12111;DHT22;6119;52.372;8.990;2022-08-14T04:41:38;20.80;99.90
12111;DHT22;6119;52.372;8.990;2022-08-14T04:44:41;20.90;99.90
12111;DHT22;6119;52.372;8.990;2022-08-14T04:47:36;20.90;99.90
12111;DHT22;6119;52.372;8.990;2022-08-14T04:50:43;20.80;99.90
12111;DHT22;6119;52.372;8.990;2022-08-14T04:53:40;20.90;99.90
12111;DHT22;6119;52.372;8.990;2022-08-14T04:56:28;20.90;99.90
12111;DHT22;6119;52.372;8.990;2022-08-14T04:59:19;21.00;99.90
12111;DHT22;6119;52.372;8.990;2022-08-14T05:02:05;21.00;99.90
12111;DHT22;6119;52.372;8.990;2022-08-14T05:04:54;21.10;99.90
12111;DHT22;6119;52.372;8.990;2022-08-14T05:07:43;21.10;99.90
12111;DHT22;6119;52.372;8.990;2022-08-14T05:10:48;21.00;99.90
12111;DHT22;6119;52.372;8.990;2022-08-14T05:13:37;21.10;99.90
12111;DHT22;6119;52.372;8.990;2022-08-14T05:16:44;21.10;99.90
12111;DHT22;6119;52.372;8.990;2022-08-14T05:19:32;21.20;99.90
12111;DHT22;6119;52.372;8.990;2022-08-14T05:22:40;21.20;99.90
12111;DHT22;6119;52.372;8.990;2022-08-14T05:25:27;21.30;99.90
12111;DHT22;6119;52.372;8.990;2022-08-14T05:28:19;21.40;99.90
12111;DHT22;6119;52.372;8.990;2022-08-14T05:31:06;21.50;99.90
12111;DHT22;6119;52.372;8.990;2022-08-14T05:33:53;21.50;99.90
12111;DHT22;6119;52.372;8.990;2022-08-14T05:36:41;21.50;99.90
12111;DHT22;6119;52.372;8.990;2022-08-14T05:39:37;21.60;99.90
12111;DHT22;6119;52.372;8.990;2022-08-14T05:42:25;21.60;99.90
12111;DHT22;6119;52.372;8.990;2022-08-14T05:45:18;21.70;99.90
12111;DHT22;6119;52.372;8.990;2022-08-14T05:48:05;21.70;99.90
12111;DHT22;6119;52.372;8.990;2022-08-14T05:50:54;21.70;99.90
12111;DHT22;6119;52.372;8.990;2022-08-14T05:53:42;21.70;99.90
12111;DHT22;6119;52.372;8.990;2022-08-14T05:56:51;21.90;99.90
12111;DHT22;6119;52.372;8.990;2022-08-14T05:59:39;22.00;99.90
12111;DHT22;6119;52.372;8.990;2022-08-14T06:02:26;22.10;99.90
12111;DHT22;6119;52.372;8.990;2022-08-14T06:05:13;22.10;99.90
12111;DHT22;6119;52.372;8.990;2022-08-14T06:08:00;22.20;99.90
12111;DHT22;6119;52.372;8.990;2022-08-14T06:10:54;22.20;99.90
12111;DHT22;6119;52.372;8.990;2022-08-14T06:13:43;22.30;99.90
12111;DHT22;6119;52.372;8.990;2022-08-14T06:16:30;22.40;99.90
12111;DHT22;6119;52.372;8.990;2022-08-14T06:19:17;22.40;99.90
12111;DHT22;6119;52.372;8.990;2022-08-14T06:22:04;22.50;99.90
12111;DHT22;6119;52.372;8.990;2022-08-14T06:24:52;22.50;99.90
12111;DHT22;6119;52.372;8.990;2022-08-14T06:27:40;22.50;99.90
12111;DHT22;6119;52.372;8.990;2022-08-14T06:30:33;22.60;99.90
12111;DHT22;6119;52.372;8.990;2022-08-14T06:33:31;22.70;99.90
12111;DHT22;6119;52.372;8.990;2022-08-14T06:36:39;22.70;99.90
12111;DHT22;6119;52.372;8.990;2022-08-14T06:39:26;22.80;99.90
12111;DHT22;6119;52.372;8.990;2022-08-14T06:42:22;22.90;99.90
12111;DHT22;6119;52.372;8.990;2022-08-14T06:45:17;22.90;99.90
12111;DHT22;6119;52.372;8.990;2022-08-14T06:48:12;23.00;99.90
12111;DHT22;6119;52.372;8.990;2022-08-14T06:51:01;23.10;99.90
12111;DHT22;6119;52.372;8.990;2022-08-14T06:53:49;23.10;99.90
12111;DHT22;6119;52.372;8.990;2022-08-14T06:56:36;23.20;99.90
12111;DHT22;6119;52.372;8.990;2022-08-14T06:59:28;23.30;99.90
12111;DHT22;6119;52.372;8.990;2022-08-14T07:02:18;23.40;99.90
12111;DHT22;6119;52.372;8.990;2022-08-14T07:05:29;23.50;99.90
12111;DHT22;6119;52.372;8.990;2022-08-14T07:08:42;23.60;99.90
12111;DHT22;6119;52.372;8.990;2022-08-14T07:11:32;23.70;99.90
12111;DHT22;6119;52.372;8.990;2022-08-14T07:14:19;23.80;99.90
12111;DHT22;6119;52.372;8.990;2022-08-14T07:17:05;23.90;99.90
12111;DHT22;6119;52.372;8.990;2022-08-14T07:19:51;24.00;99.90
12111;DHT22;6119;52.372;8.990;2022-08-14T07:22:40;24.10;99.90
12111;DHT22;6119;52.372;8.990;2022-08-14T07:25:42;24.20;99.90
12111;DHT22;6119;52.372;8.990;2022-08-14T07:28:33;24.30;99.90
12111;DHT22;6119;52.372;8.990;2022-08-14T07:31:28;24.30;99.90
12111;DHT22;6119;52.372;8.990;2022-08-14T07:34:15;24.40;99.90
12111;DHT22;6119;52.372;8.990;2022-08-14T07:37:21;24.50;99.90
12111;DHT22;6119;52.372;8.990;2022-08-14T07:40:11;24.50;99.90
12111;DHT22;6119;52.372;8.990;2022-08-14T07:43:06;24.60;99.90
12111;DHT22;6119;52.372;8.990;2022-08-14T07:45:59;24.70;99.90
12111;DHT22;6119;52.372;8.990;2022-08-14T07:48:47;24.80;99.90
12111;DHT22;6119;52.372;8.990;2022-08-14T07:51:37;24.80;99.90
12111;DHT22;6119;52.372;8.990;2022-08-14T07:54:24;25.00;99.90
12111;DHT22;6119;52.372;8.990;2022-08-14T07:57:16;25.10;99.90
12111;DHT22;6119;52.372;8.990;2022-08-14T08:00:12;25.20;99.90
12111;DHT22;6119;52.372;8.990;2022-08-14T08:03:18;25.20;99.90
12111;DHT22;6119;52.372;8.990;2022-08-14T08:06:08;25.30;99.90
12111;DHT22;6119;52.372;8.990;2022-08-14T08:09:02;25.40;99.90
12111;DHT22;6119;52.372;8.990;2022-08-14T08:11:50;25.60;99.90
12111;DHT22;6119;52.372;8.990;2022-08-14T08:14:43;25.70;99.90
12111;DHT22;6119;52.372;8.990;2022-08-14T08:17:46;25.80;99.90
12111;DHT22;6119;52.372;8.990;2022-08-14T08:20:47;25.90;99.90
12111;DHT22;6119;52.372;8.990;2022-08-14T08:23:37;26.00;99.90
12111;DHT22;6119;52.372;8.990;2022-08-14T08:26:35;26.10;99.90
12111;DHT22;6119;52.372;8.990;2022-08-14T08:29:23;26.20;99.90
12111;DHT22;6119;52.372;8.990;2022-08-14T08:32:15;26.30;99.90
12111;DHT22;6119;52.372;8.990;2022-08-14T08:35:02;26.40;99.90
12111;DHT22;6119;52.372;8.990;2022-08-14T08:37:53;26.50;99.90
12111;DHT22;6119;52.372;8.990;2022-08-14T08:40:49;26.60;99.90
12111;DHT22;6119;52.372;8.990;2022-08-14T08:43:37;26.70;99.90
12111;DHT22;6119;52.372;8.990;2022-08-14T08:46:31;26.70;99.90
12111;DHT22;6119;52.372;8.990;2022-08-14T08:49:21;26.80;99.90
12111;DHT22;6119;52.372;8.990;2022-08-14T08:52:08;27.00;99.90
12111;DHT22;6119;52.372;8.990;2022-08-14T08:55:09;27.00;99.90
12111;DHT22;6119;52.372;8.990;2022-08-14T08:57:59;27.10;99.90
12111;DHT22;6119;52.372;8.990;2022-08-14T09:00:49;27.20;99.90
12111;DHT22;6119;52.372;8.990;2022-08-14T09:03:40;27.30;99.90
12111;DHT22;6119;52.372;8.990;2022-08-14T09:06:30;27.40;99.90
12111;DHT22;6119;52.372;8.990;2022-08-14T09:09:37;27.40;99.90
12111;DHT22;6119;52.372;8.990;2022-08-14T09:12:43;27.50;99.90
12111;DHT22;6119;52.372;8.990;2022-08-14T09:15:37;27.50;99.90
12111;DHT22;6119;52.372;8.990;2022-08-14T09:18:27;27.60;99.90
12111;DHT22;6119;52.372;8.990;2022-08-14T09:21:14;27.70;99.90
12111;DHT22;6119;52.372;8.990;2022-08-14T09:24:05;27.80;99.90
12111;DHT22;6119;52.372;8.990;2022-08-14T09:27:12;28.00;99.90
12111;DHT22;6119;52.372;8.990;2022-08-14T09:30:08;28.00;99.90
12111;DHT22;6119;52.372;8.990;2022-08-14T09:36:51;28.30;99.90
12111;DHT22;6119;52.372;8.990;2022-08-14T09:39:55;28.50;99.90
12111;DHT22;6119;52.372;8.990;2022-08-14T09:42:54;28.50;99.90
12111;DHT22;6119;52.372;8.990;2022-08-14T09:45:45;28.50;99.90
12111;DHT22;6119;52.372;8.990;2022-08-14T09:48:37;28.60;99.90
12111;DHT22;6119;52.372;8.990;2022-08-14T09:51:29;28.70;99.90
12111;DHT22;6119;52.372;8.990;2022-08-14T09:54:17;28.90;99.90
12111;DHT22;6119;52.372;8.990;2022-08-14T09:57:10;29.00;99.90
12111;DHT22;6119;52.372;8.990;2022-08-14T10:00:09;29.00;99.90
12111;DHT22;6119;52.372;8.990;2022-08-14T10:03:25;29.10;99.90
12111;DHT22;6119;52.372;8.990;2022-08-14T10:06:19;29.30;99.90
12111;DHT22;6119;52.372;8.990;2022-08-14T10:09:12;29.30;99.90
12111;DHT22;6119;52.372;8.990;2022-08-14T10:12:02;29.40;99.90
12111;DHT22;6119;52.372;8.990;2022-08-14T10:15:21;29.50;99.90
12111;DHT22;6119;52.372;8.990;2022-08-14T10:18:11;29.60;99.90
12111;DHT22;6119;52.372;8.990;2022-08-14T10:21:02;29.60;99.90
12111;DHT22;6119;52.372;8.990;2022-08-14T10:23:54;29.70;99.90
12111;DHT22;6119;52.372;8.990;2022-08-14T10:26:52;29.80;99.90
12111;DHT22;6119;52.372;8.990;2022-08-14T10:29:48;29.90;99.90
12111;DHT22;6119;52.372;8.990;2022-08-14T10:32:43;30.00;99.90
12111;DHT22;6119;52.372;8.990;2022-08-14T10:35:41;30.00;99.90
12111;DHT22;6119;52.372;8.990;2022-08-14T10:38:34;30.00;99.90
12111;DHT22;6119;52.372;8.990;2022-08-14T10:41:37;30.00;99.90
12111;DHT22;6119;52.372;8.990;2022-08-14T10:44:35;30.30;99.90
12111;DHT22;6119;52.372;8.990;2022-08-14T10:47:33;30.40;99.90
12111;DHT22;6119;52.372;8.990;2022-08-14T10:50:42;30.50;99.90
12111;DHT22;6119;52.372;8.990;2022-08-14T10:53:36;30.70;99.90
12111;DHT22;6119;52.372;8.990;2022-08-14T10:56:29;30.80;99.90
12111;DHT22;6119;52.372;8.990;2022-08-14T10:59:19;30.80;99.90
12111;DHT22;6119;52.372;8.990;2022-08-14T11:02:21;30.60;99.90
12111;DHT22;6119;52.372;8.990;2022-08-14T11:05:38;30.80;99.90
12111;DHT22;6119;52.372;8.990;2022-08-14T11:08:31;30.80;99.90
12111;DHT22;6119;52.372;8.990;2022-08-14T11:11:21;30.30;99.90
12111;DHT22;6119;52.372;8.990;2022-08-14T11:14:21;30.30;99.90
12111;DHT22;6119;52.372;8.990;2022-08-14T11:17:11;30.80;99.90
12111;DHT22;6119;52.372;8.990;2022-08-14T11:20:08;30.90;99.80
12111;DHT22;6119;52.372;8.990;2022-08-14T11:23:00;31.20;99.50
12111;DHT22;6119;52.372;8.990;2022-08-14T11:25:55;31.40;98.80
12111;DHT22;6119;52.372;8.990;2022-08-14T11:28:43;31.50;99.00
12111;DHT22;6119;52.372;8.990;2022-08-14T11:31:36;31.50;98.50
12111;DHT22;6119;52.372;8.990;2022-08-14T11:34:26;31.40;98.60
12111;DHT22;6119;52.372;8.990;2022-08-14T11:37:17;31.60;98.50
12111;DHT22;6119;52.372;8.990;2022-08-14T11:40:25;31.30;97.40
12111;DHT22;6119;52.372;8.990;2022-08-14T11:43:15;31.20;97.10
12111;DHT22;6119;52.372;8.990;2022-08-14T11:46:02;30.90;97.70
12111;DHT22;6119;52.372;8.990;2022-08-14T11:49:02;30.90;98.40
12111;DHT22;6119;52.372;8.990;2022-08-14T11:51:52;30.60;97.50
12111;DHT22;6119;52.372;8.990;2022-08-14T11:54:39;30.80;98.90
12111;DHT22;6119;52.372;8.990;2022-08-14T11:57:26;30.90;98.00
12111;DHT22;6119;52.372;8.990;2022-08-14T12:00:16;31.00;97.70
12111;DHT22;6119;52.372;8.990;2022-08-14T12:03:04;30.70;96.90
12111;DHT22;6119;52.372;8.990;2022-08-14T12:05:51;30.90;97.00
12111;DHT22;6119;52.372;8.990;2022-08-14T12:08:38;30.80;97.60
12111;DHT22;6119;52.372;8.990;2022-08-14T12:11:24;30.80;97.10
12111;DHT22;6119;52.372;8.990;2022-08-14T12:14:12;30.60;97.50
12111;DHT22;6119;52.372;8.990;2022-08-14T12:17:21;30.40;97.60
12111;DHT22;6119;52.372;8.990;2022-08-14T12:20:09;30.20;97.80
12111;DHT22;6119;52.372;8.990;2022-08-14T12:23:00;30.30;97.80
12111;DHT22;6119;52.372;8.990;2022-08-14T12:26:00;30.30;97.50
12111;DHT22;6119;52.372;8.990;2022-08-14T12:29:09;30.50;98.30
12111;DHT22;6119;52.372;8.990;2022-08-14T12:31:58;30.50;97.80
12111;DHT22;6119;52.372;8.990;2022-08-14T12:34:58;31.10;97.50
12111;DHT22;6119;52.372;8.990;2022-08-14T12:37:46;31.30;96.80
12111;DHT22;6119;52.372;8.990;2022-08-14T12:40:44;31.20;95.50
12111;DHT22;6119;52.372;8.990;2022-08-14T12:43:31;31.10;95.90
12111;DHT22;6119;52.372;8.990;2022-08-14T12:46:27;31.60;96.00
12111;DHT22;6119;52.372;8.990;2022-08-14T12:49:15;31.40;95.80
12111;DHT22;6119;52.372;8.990;2022-08-14T12:52:12;31.00;95.60
12111;DHT22;6119;52.372;8.990;2022-08-14T12:55:05;30.80;95.70
12111;DHT22;6119;52.372;8.990;2022-08-14T12:57:57;30.60;96.30
12111;DHT22;6119;52.372;8.990;2022-08-14T13:00:50;30.70;95.90
12111;DHT22;6119;52.372;8.990;2022-08-14T13:04:04;30.80;96.10
12111;DHT22;6119;52.372;8.990;2022-08-14T13:06:51;30.70;95.30
12111;DHT22;6119;52.372;8.990;2022-08-14T13:09:40;31.10;95.90
12111;DHT22;6119;52.372;8.990;2022-08-14T13:12:27;31.60;95.60
12111;DHT22;6119;52.372;8.990;2022-08-14T13:15:19;32.10;95.00
12111;DHT22;6119;52.372;8.990;2022-08-14T13:18:08;32.50;95.00
12111;DHT22;6119;52.372;8.990;2022-08-14T13:20:57;32.70;93.60
12111;DHT22;6119;52.372;8.990;2022-08-14T13:23:46;33.00;93.10
12111;DHT22;6119;52.372;8.990;2022-08-14T13:26:35;33.00;91.70
12111;DHT22;6119;52.372;8.990;2022-08-14T13:29:23;33.10;91.60
12111;DHT22;6119;52.372;8.990;2022-08-14T13:32:14;33.10;90.80
12111;DHT22;6119;52.372;8.990;2022-08-14T13:35:00;33.30;91.30
12111;DHT22;6119;52.372;8.990;2022-08-14T13:37:53;33.40;91.30
12111;DHT22;6119;52.372;8.990;2022-08-14T13:40:40;33.60;91.40
12111;DHT22;6119;52.372;8.990;2022-08-14T13:43:34;33.80;91.20
12111;DHT22;6119;52.372;8.990;2022-08-14T13:46:43;33.20;90.00
12111;DHT22;6119;52.372;8.990;2022-08-14T13:49:32;33.50;90.20
12111;DHT22;6119;52.372;8.990;2022-08-14T13:52:20;33.80;89.80
12111;DHT22;6119;52.372;8.990;2022-08-14T13:55:28;34.10;90.30
12111;DHT22;6119;52.372;8.990;2022-08-14T13:58:19;34.20;88.10
12111;DHT22;6119;52.372;8.990;2022-08-14T14:01:20;34.20;86.50
12111;DHT22;6119;52.372;8.990;2022-08-14T14:04:08;33.80;85.60
12111;DHT22;6119;52.372;8.990;2022-08-14T14:07:05;33.60;86.30
12111;DHT22;6119;52.372;8.990;2022-08-14T14:09:57;33.60;85.90
12111;DHT22;6119;52.372;8.990;2022-08-14T14:12:50;33.90;84.70
12111;DHT22;6119;52.372;8.990;2022-08-14T14:15:41;33.90;86.90
12111;DHT22;6119;52.372;8.990;2022-08-14T14:18:47;34.00;85.00
12111;DHT22;6119;52.372;8.990;2022-08-14T14:21:37;34.00;84.00
12111;DHT22;6119;52.372;8.990;2022-08-14T14:24:25;34.20;86.00
12111;DHT22;6119;52.372;8.990;2022-08-14T14:27:19;34.30;84.90
12111;DHT22;6119;52.372;8.990;2022-08-14T14:30:25;34.40;85.20
12111;DHT22;6119;52.372;8.990;2022-08-14T14:33:34;34.50;82.80
12111;DHT22;6119;52.372;8.990;2022-08-14T14:36:34;34.30;82.90
12111;DHT22;6119;52.372;8.990;2022-08-14T14:39:25;34.30;85.50
12111;DHT22;6119;52.372;8.990;2022-08-14T14:42:14;34.10;82.70
12111;DHT22;6119;52.372;8.990;2022-08-14T14:45:08;34.20;83.30
12111;DHT22;6119;52.372;8.990;2022-08-14T14:47:59;34.20;84.60
12111;DHT22;6119;52.372;8.990;2022-08-14T14:50:48;34.40;82.70
12111;DHT22;6119;52.372;8.990;2022-08-14T14:53:39;34.50;82.60
12111;DHT22;6119;52.372;8.990;2022-08-14T14:56:28;34.50;83.00
12111;DHT22;6119;52.372;8.990;2022-08-14T14:59:35;34.60;83.90
12111;DHT22;6119;52.372;8.990;2022-08-14T15:02:31;34.90;83.70
12111;DHT22;6119;52.372;8.990;2022-08-14T15:05:21;35.00;82.60
12111;DHT22;6119;52.372;8.990;2022-08-14T15:08:12;35.10;83.40
12111;DHT22;6119;52.372;8.990;2022-08-14T15:11:12;34.90;81.50
12111;DHT22;6119;52.372;8.990;2022-08-14T15:13:59;34.90;81.20
12111;DHT22;6119;52.372;8.990;2022-08-14T15:17:06;34.70;81.30
12111;DHT22;6119;52.372;8.990;2022-08-14T15:19:54;34.30;82.10
12111;DHT22;6119;52.372;8.990;2022-08-14T15:22:42;34.00;83.60
12111;DHT22;6119;52.372;8.990;2022-08-14T15:25:35;33.70;84.40
12111;DHT22;6119;52.372;8.990;2022-08-14T15:28:25;33.40;84.40
12111;DHT22;6119;52.372;8.990;2022-08-14T15:31:22;33.30;85.30
12111;DHT22;6119;52.372;8.990;2022-08-14T15:34:09;33.30;86.80
12111;DHT22;6119;52.372;8.990;2022-08-14T15:37:19;33.10;86.90
12111;DHT22;6119;52.372;8.990;2022-08-14T15:40:08;33.10;86.70
12111;DHT22;6119;52.372;8.990;2022-08-14T15:43:08;33.00;86.60
12111;DHT22;6119;52.372;8.990;2022-08-14T15:45:58;32.80;87.00
12111;DHT22;6119;52.372;8.990;2022-08-14T15:48:45;33.00;87.60
12111;DHT22;6119;52.372;8.990;2022-08-14T15:51:33;33.20;88.90
12111;DHT22;6119;52.372;8.990;2022-08-14T15:54:26;33.30;89.10
12111;DHT22;6119;52.372;8.990;2022-08-14T15:57:16;33.60;88.10
12111;DHT22;6119;52.372;8.990;2022-08-14T16:00:07;33.70;87.10
12111;DHT22;6119;52.372;8.990;2022-08-14T16:03:30;33.60;86.50
12111;DHT22;6119;52.372;8.990;2022-08-14T16:06:22;33.80;87.90
12111;DHT22;6119;52.372;8.990;2022-08-14T16:09:11;33.70;87.70
12111;DHT22;6119;52.372;8.990;2022-08-14T16:11:58;33.70;86.80
12111;DHT22;6119;52.372;8.990;2022-08-14T16:14:45;33.90;85.10
12111;DHT22;6119;52.372;8.990;2022-08-14T16:17:35;33.70;84.60
12111;DHT22;6119;52.372;8.990;2022-08-14T16:20:30;33.50;83.90
12111;DHT22;6119;52.372;8.990;2022-08-14T16:23:26;33.40;84.30
12111;DHT22;6119;52.372;8.990;2022-08-14T16:26:21;33.40;85.40
12111;DHT22;6119;52.372;8.990;2022-08-14T16:29:17;33.30;86.90
12111;DHT22;6119;52.372;8.990;2022-08-14T16:32:07;33.10;84.40
12111;DHT22;6119;52.372;8.990;2022-08-14T16:35:14;33.40;85.00
12111;DHT22;6119;52.372;8.990;2022-08-14T16:38:03;33.60;85.60
12111;DHT22;6119;52.372;8.990;2022-08-14T16:41:05;33.70;83.90
12111;DHT22;6119;52.372;8.990;2022-08-14T16:44:10;33.90;83.50
12111;DHT22;6119;52.372;8.990;2022-08-14T16:47:16;33.90;82.40
12111;DHT22;6119;52.372;8.990;2022-08-14T16:50:07;33.70;82.90
12111;DHT22;6119;52.372;8.990;2022-08-14T16:52:59;33.30;82.80
12111;DHT22;6119;52.372;8.990;2022-08-14T16:56:08;33.20;84.30
12111;DHT22;6119;52.372;8.990;2022-08-14T16:59:10;33.00;83.00
12111;DHT22;6119;52.372;8.990;2022-08-14T17:01:59;32.70;82.80
12111;DHT22;6119;52.372;8.990;2022-08-14T17:04:49;32.50;83.90
12111;DHT22;6119;52.372;8.990;2022-08-14T17:07:39;32.40;84.70
12111;DHT22;6119;52.372;8.990;2022-08-14T17:10:33;32.40;83.70
12111;DHT22;6119;52.372;8.990;2022-08-14T17:13:24;32.40;84.10
12111;DHT22;6119;52.372;8.990;2022-08-14T17:16:34;32.50;84.00
12111;DHT22;6119;52.372;8.990;2022-08-14T17:19:23;32.30;84.30
12111;DHT22;6119;52.372;8.990;2022-08-14T17:22:09;32.30;84.50
12111;DHT22;6119;52.372;8.990;2022-08-14T17:24:58;32.20;83.80
12111;DHT22;6119;52.372;8.990;2022-08-14T17:28:08;32.10;83.40
12111;DHT22;6119;52.372;8.990;2022-08-14T17:31:16;32.00;85.10
12111;DHT22;6119;52.372;8.990;2022-08-14T17:34:03;31.80;84.00
12111;DHT22;6119;52.372;8.990;2022-08-14T17:37:03;31.70;84.50
12111;DHT22;6119;52.372;8.990;2022-08-14T17:40:04;31.60;86.80
12111;DHT22;6119;52.372;8.990;2022-08-14T17:43:00;31.60;85.90
12111;DHT22;6119;52.372;8.990;2022-08-14T17:45:48;31.50;87.00
12111;DHT22;6119;52.372;8.990;2022-08-14T17:48:38;31.50;87.50
12111;DHT22;6119;52.372;8.990;2022-08-14T17:51:54;31.50;86.40
12111;DHT22;6119;52.372;8.990;2022-08-14T17:54:47;31.40;86.40
12111;DHT22;6119;52.372;8.990;2022-08-14T17:57:45;31.40;89.60
12111;DHT22;6119;52.372;8.990;2022-08-14T18:00:35;31.30;89.10
12111;DHT22;6119;52.372;8.990;2022-08-14T18:03:28;31.10;89.10
12111;DHT22;6119;52.372;8.990;2022-08-14T18:06:37;31.20;87.80
12111;DHT22;6119;52.372;8.990;2022-08-14T18:09:47;31.20;89.90
12111;DHT22;6119;52.372;8.990;2022-08-14T18:12:43;31.10;87.90
12111;DHT22;6119;52.372;8.990;2022-08-14T18:15:32;31.00;88.30
12111;DHT22;6119;52.372;8.990;2022-08-14T18:18:21;31.00;88.50
12111;DHT22;6119;52.372;8.990;2022-08-14T18:21:16;31.00;89.70
12111;DHT22;6119;52.372;8.990;2022-08-14T18:24:26;30.90;88.40
12111;DHT22;6119;52.372;8.990;2022-08-14T18:27:19;30.90;89.30
12111;DHT22;6119;52.372;8.990;2022-08-14T18:30:08;30.80;90.10
12111;DHT22;6119;52.372;8.990;2022-08-14T18:33:20;30.70;90.50
12111;DHT22;6119;52.372;8.990;2022-08-14T18:36:08;30.70;91.00
12111;DHT22;6119;52.372;8.990;2022-08-14T18:39:25;30.60;91.00